Time;durP1;ratioP1;P1;durP2;ratioP2;P2;SDS_P1;SDS_P2;PMS_P1;PMS_P2;Temp;Humidity;BMP_temperature;BMP_pressure;BME280_temperature;BME280_humidity;BME280_pressure;Samples;Min_cycle;Max_cycle;Signal;HPM_P1;HPM_P2
2024/03/04 00:00:05;;;;;;;21.27;18.77;;;6.30;94.60;;;;;;5050133;28;20044;-78
2024/03/04 00:02:31;;;;;;;21.40;17.92;;;6.30;94.60;;;;;;5055262;28;20013;-78
2024/03/04 00:04:57;;;;;;;21.63;18.33;;;6.30;94.60;;;;;;5054800;28;20487;-79
2024/03/04 00:07:26;;;;;;;24.45;19.00;;;6.30;94.60;;;;;;5052612;28;20367;-80
2024/03/04 00:09:51;;;;;;;20.80;17.73;;;6.20;94.60;;;;;;5050451;28;20041;-80
2024/03/04 00:12:17;;;;;;;20.23;17.95;;;6.30;94.70;;;;;;5054642;28;20039;-81
2024/03/04 00:14:43;;;;;;;20.17;16.88;;;6.30;94.70;;;;;;5053795;28;20538;-79
2024/03/04 00:17:09;;;;;;;20.45;18.15;;;6.20;94.80;;;;;;5049925;28;20410;-80
2024/03/04 00:19:36;;;;;;;20.92;18.73;;;6.20;94.90;;;;;;5067759;28;20027;-79
2024/03/04 00:22:03;;;;;;;23.35;19.73;;;6.20;94.90;;;;;;5049566;28;20055;-79
2024/03/04 00:24:29;;;;;;;23.17;19.67;;;6.20;94.90;;;;;;5054974;28;20507;-79
2024/03/04 00:26:55;;;;;;;22.30;19.75;;;6.20;95.00;;;;;;5040426;28;20083;-78
2024/03/04 00:29:21;;;;;;;22.25;19.73;;;6.20;95.00;;;;;;5055725;28;20037;-78
2024/03/04 00:31:46;;;;;;;22.85;20.40;;;6.20;95.00;;;;;;5053266;28;20570;-78
2024/03/04 00:34:12;;;;;;;24.92;19.95;;;6.20;95.10;;;;;;5048244;28;20024;-78
2024/03/04 00:36:39;;;;;;;22.48;20.08;;;6.20;95.10;;;;;;5050742;28;20052;-78
2024/03/04 00:39:04;;;;;;;22.48;19.88;;;6.10;95.10;;;;;;5055968;28;20433;-79
2024/03/04 00:41:30;;;;;;;25.25;22.00;;;6.10;95.20;;;;;;5051188;28;20020;-77
2024/03/04 00:43:56;;;;;;;23.25;20.80;;;6.10;95.20;;;;;;5053349;28;20049;-78
2024/03/04 00:46:23;;;;;;;24.00;21.17;;;6.10;95.30;;;;;;5053748;28;20033;-77
2024/03/04 00:48:49;;;;;;;24.08;20.92;;;6.10;95.30;;;;;;5051359;28;20017;-78
2024/03/04 00:51:15;;;;;;;25.00;21.05;;;6.00;95.30;;;;;;5052344;28;22879;-78
2024/03/04 00:53:44;;;;;;;25.65;22.75;;;5.90;95.30;;;;;;5053707;28;20050;-79
2024/03/04 00:56:11;;;;;;;25.75;22.17;;;5.90;95.30;;;;;;5050698;28;20048;-79
2024/03/04 00:58:37;;;;;;;26.38;23.42;;;5.80;95.30;;;;;;5057751;28;20067;-79
2024/03/04 01:01:03;;;;;;;26.48;23.40;;;5.80;95.40;;;;;;5054370;28;20052;-79
2024/03/04 01:03:29;;;;;;;27.45;24.48;;;5.80;95.50;;;;;;5052653;28;20025;-80
2024/03/04 01:05:55;;;;;;;27.73;24.83;;;5.80;95.50;;;;;;5054679;28;20097;-78
2024/03/04 01:08:21;;;;;;;28.20;24.15;;;5.80;95.70;;;;;;5051484;28;20568;-78
2024/03/04 01:10:47;;;;;;;29.27;26.02;;;5.80;95.80;;;;;;5047170;28;20048;-78
2024/03/04 01:13:12;;;;;;;28.58;25.25;;;5.80;95.80;;;;;;5055564;28;20063;-79
2024/03/04 01:15:38;;;;;;;28.35;23.27;;;5.80;95.80;;;;;;5049108;28;20048;-78
2024/03/04 01:18:04;;;;;;;31.23;25.67;;;5.80;95.70;;;;;;5054209;28;20008;-78
2024/03/04 01:20:32;;;;;;;30.92;25.52;;;5.80;95.70;;;;;;5051281;28;20036;-79
2024/03/04 01:22:58;;;;;;;30.20;25.67;;;5.80;95.80;;;;;;5055879;28;20067;-78
2024/03/04 01:25:24;;;;;;;28.15;25.13;;;5.80;95.80;;;;;;5050764;28;20091;-78
2024/03/04 01:27:50;;;;;;;29.65;26.55;;;5.80;95.70;;;;;;5056276;28;20027;-78
2024/03/04 01:30:16;;;;;;;31.30;28.00;;;5.80;95.80;;;;;;5051155;28;20377;-79
2024/03/04 01:32:43;;;;;;;32.20;28.15;;;5.80;95.80;;;;;;5052480;28;20110;-79
2024/03/04 01:35:10;;;;;;;33.03;29.13;;;5.80;95.90;;;;;;5052924;28;20548;-78
2024/03/04 01:37:38;;;;;;;34.13;29.02;;;5.80;95.90;;;;;;5054663;28;20025;-79
2024/03/04 01:40:05;;;;;;;33.42;28.70;;;5.80;96.00;;;;;;5052613;28;20036;-79
2024/03/04 01:42:31;;;;;;;36.20;31.48;;;5.80;96.00;;;;;;5054068;28;20040;-79
2024/03/04 01:44:56;;;;;;;33.03;29.13;;;5.80;96.00;;;;;;5055620;28;20462;-79
2024/03/04 01:47:23;;;;;;;33.55;29.88;;;5.80;96.10;;;;;;5058047;28;20020;-78
2024/03/04 01:49:51;;;;;;;34.22;30.55;;;5.80;96.00;;;;;;5069581;28;20801;-79
2024/03/04 01:52:17;;;;;;;35.83;31.00;;;5.80;96.00;;;;;;5050085;28;20024;-79
2024/03/04 01:54:46;;;;;;;38.25;34.05;;;5.90;96.10;;;;;;5052438;28;20020;-79
2024/03/04 01:57:17;;;;;;;40.88;36.55;;;5.80;96.10;;;;;;5052668;28;20029;-79
2024/03/04 01:59:50;;;;;;;40.97;36.38;;;5.80;96.10;;;;;;5041236;28;20033;-79
2024/03/04 02:02:16;;;;;;;41.13;35.25;;;5.80;96.10;;;;;;5050269;28;20044;-79
2024/03/04 02:04:41;;;;;;;43.05;38.25;;;5.90;96.20;;;;;;5044977;28;20329;-79
2024/03/04 02:07:08;;;;;;;44.38;39.67;;;5.90;96.10;;;;;;5052542;28;20044;-79
2024/03/04 02:09:35;;;;;;;47.63;41.10;;;5.90;96.10;;;;;;5056306;28;20020;-79
2024/03/04 02:12:05;;;;;;;45.25;40.40;;;5.90;96.10;;;;;;5047819;28;20480;-78
2024/03/04 02:14:31;;;;;;;46.67;41.78;;;5.90;96.20;;;;;;5051576;28;20025;-79
2024/03/04 02:16:56;;;;;;;46.30;41.35;;;5.90;96.10;;;;;;5056115;28;20441;-79
2024/03/04 02:19:22;;;;;;;45.63;40.92;;;5.90;96.20;;;;;;5048207;28;20196;-79
2024/03/04 02:21:55;;;;;;;47.15;41.65;;;5.90;96.20;;;;;;5043498;28;20100;-79
2024/03/04 02:24:21;;;;;;;46.72;41.88;;;5.80;96.20;;;;;;5051988;28;20399;-78
2024/03/04 02:26:49;;;;;;;46.00;41.20;;;5.80;96.20;;;;;;5045770;28;20024;-80
2024/03/04 02:29:14;;;;;;;44.67;40.08;;;5.90;96.20;;;;;;5049650;28;20067;-79
2024/03/04 02:31:40;;;;;;;43.45;38.90;;;5.80;96.20;;;;;;5052380;28;20419;-80
2024/03/04 02:34:07;;;;;;;47.13;42.25;;;5.90;96.20;;;;;;5055964;28;20533;-79
2024/03/04 02:36:33;;;;;;;45.08;40.17;;;5.90;96.30;;;;;;5056370;28;20040;-78
2024/03/04 02:38:58;;;;;;;42.47;38.17;;;5.80;96.20;;;;;;5053538;28;20321;-80
2024/03/04 02:41:26;;;;;;;40.78;36.50;;;5.80;96.20;;;;;;5054467;28;20036;-78
2024/03/04 02:43:52;;;;;;;40.22;35.67;;;5.80;96.30;;;;;;5055859;28;20159;-80
2024/03/04 02:46:18;;;;;;;39.63;35.33;;;5.80;96.30;;;;;;5051685;28;20376;-79
2024/03/04 02:48:44;;;;;;;34.85;30.85;;;5.80;96.30;;;;;;5052493;28;20036;-80
2024/03/04 02:51:10;;;;;;;33.92;30.20;;;5.90;96.30;;;;;;5042177;28;20116;-80
2024/03/04 02:53:36;;;;;;;34.88;29.20;;;5.80;96.20;;;;;;5051825;28;20221;-79
2024/03/04 02:56:01;;;;;;;30.60;27.35;;;5.80;96.20;;;;;;5054081;28;20357;-80
2024/03/04 02:58:27;;;;;;;30.02;26.63;;;5.80;96.20;;;;;;5054315;28;20358;-80
2024/03/04 03:00:53;;;;;;;30.48;26.92;;;5.80;96.20;;;;;;5053703;28;20056;-80
2024/03/04 03:03:22;;;;;;;30.27;26.65;;;5.80;96.10;;;;;;5053856;28;20039;-79
2024/03/04 03:05:48;;;;;;;30.90;26.88;;;5.80;96.10;;;;;;5054830;28;20074;-79
2024/03/04 03:08:14;;;;;;;29.40;25.25;;;5.80;96.10;;;;;;5058776;28;20016;-79
2024/03/04 03:10:40;;;;;;;28.33;25.23;;;5.80;96.00;;;;;;5054655;28;20039;-80
2024/03/04 03:13:07;;;;;;;27.83;24.92;;;5.80;96.00;;;;;;5058658;28;20346;-79
2024/03/04 03:15:34;;;;;;;32.75;25.25;;;5.80;96.00;;;;;;5054332;28;20032;-80
2024/03/04 03:18:02;;;;;;;28.88;23.63;;;5.80;96.00;;;;;;5054009;28;20021;-78
2024/03/04 03:20:28;;;;;;;27.10;22.10;;;5.80;96.00;;;;;;5052817;28;20582;-80
2024/03/04 03:22:54;;;;;;;25.10;21.52;;;5.80;96.00;;;;;;5074876;28;20054;-77
2024/03/04 03:25:19;;;;;;;26.50;23.63;;;5.80;96.00;;;;;;5051538;28;20440;-78
2024/03/04 03:27:45;;;;;;;24.45;21.85;;;5.80;96.00;;;;;;5051109;28;20029;-78
2024/03/04 03:30:11;;;;;;;25.70;21.67;;;5.70;95.90;;;;;;5053391;28;20044;-78
2024/03/04 03:32:38;;;;;;;25.08;22.38;;;5.70;95.90;;;;;;5057830;28;20051;-79
2024/03/04 03:35:04;;;;;;;26.90;21.90;;;5.70;95.90;;;;;;5055064;28;20064;-78
2024/03/04 03:37:31;;;;;;;25.67;22.08;;;5.70;96.00;;;;;;5061667;28;20666;-78
2024/03/04 03:39:57;;;;;;;30.95;22.45;;;5.70;95.90;;;;;;5053429;28;20041;-79
2024/03/04 03:42:23;;;;;;;24.45;21.52;;;5.60;95.90;;;;;;5052827;28;20138;-80
2024/03/04 03:44:48;;;;;;;23.92;20.58;;;5.60;96.00;;;;;;5048792;28;20816;-80
2024/03/04 03:47:15;;;;;;;24.30;20.88;;;5.60;96.00;;;;;;5057221;28;20040;-80
2024/03/04 03:49:41;;;;;;;23.52;20.63;;;5.60;95.90;;;;;;5050351;28;20479;-79
2024/03/04 03:52:07;;;;;;;26.45;20.27;;;5.60;96.00;;;;;;5059287;28;20119;-79
2024/03/04 03:54:32;;;;;;;23.77;20.58;;;5.60;96.00;;;;;;5057448;28;20028;-79
2024/03/04 03:56:58;;;;;;;24.30;20.38;;;5.60;96.00;;;;;;5055392;28;20526;-79
2024/03/04 03:59:23;;;;;;;26.02;21.48;;;5.60;96.00;;;;;;5053147;28;20449;-79
2024/03/04 04:01:49;;;;;;;24.83;21.95;;;5.50;96.00;;;;;;5054907;28;20858;-79
2024/03/04 04:04:15;;;;;;;27.02;22.55;;;5.50;96.00;;;;;;5057835;28;20060;-79
2024/03/04 04:06:40;;;;;;;22.67;19.75;;;5.50;96.00;;;;;;5054664;28;20017;-77
2024/03/04 04:09:06;;;;;;;25.58;20.05;;;5.50;96.00;;;;;;5055936;28;20048;-78
2024/03/04 04:11:32;;;;;;;22.48;20.08;;;5.50;96.10;;;;;;5052722;28;20473;-79
2024/03/04 04:13:58;;;;;;;24.67;20.48;;;5.50;96.10;;;;;;5055219;28;20020;-78
2024/03/04 04:16:27;;;;;;;26.08;21.13;;;5.50;96.10;;;;;;5051104;28;20028;-80
2024/03/04 04:18:53;;;;;;;26.25;19.80;;;5.50;96.20;;;;;;5054321;28;20025;-80
2024/03/04 04:21:20;;;;;;;26.23;19.50;;;5.50;96.10;;;;;;5053586;28;20126;-78
2024/03/04 04:23:46;;;;;;;24.33;20.58;;;5.50;96.00;;;;;;5058859;28;20405;-80
2024/03/04 04:26:11;;;;;;;22.58;19.08;;;5.50;96.00;;;;;;5052942;28;20036;-80
2024/03/04 04:28:37;;;;;;;23.30;19.98;;;5.50;95.90;;;;;;5054973;28;20008;-79
2024/03/04 04:31:03;;;;;;;23.33;20.33;;;5.40;95.90;;;;;;5050986;28;20059;-79
2024/03/04 04:33:29;;;;;;;22.88;20.23;;;5.40;95.90;;;;;;5057760;28;20024;-79
2024/03/04 04:35:54;;;;;;;23.08;18.98;;;5.40;96.00;;;;;;5054544;28;20499;-79
2024/03/04 04:38:20;;;;;;;21.55;18.40;;;5.40;96.00;;;;;;5050252;28;20123;-79
2024/03/04 04:40:49;;;;;;;21.80;17.85;;;5.40;96.10;;;;;;5048171;28;20548;-80
2024/03/04 04:43:15;;;;;;;21.95;19.50;;;5.40;96.10;;;;;;5051937;28;20584;-79
2024/03/04 04:45:40;;;;;;;21.08;18.42;;;5.40;96.10;;;;;;5048766;28;20124;-79
2024/03/04 04:48:06;;;;;;;25.30;19.73;;;5.40;96.10;;;;;;5055806;28;20059;-78
2024/03/04 04:50:32;;;;;;;21.58;18.85;;;5.40;96.20;;;;;;5047351;28;20037;-79
2024/03/04 04:52:57;;;;;;;21.13;18.92;;;5.40;96.20;;;;;;5059547;28;20461;-80
2024/03/04 04:55:23;;;;;;;23.48;20.00;;;5.40;96.20;;;;;;5050999;28;20048;-80
2024/03/04 04:57:48;;;;;;;27.25;21.23;;;5.40;96.20;;;;;;5052886;28;20404;-80
2024/03/04 05:00:15;;;;;;;25.80;20.33;;;5.30;96.20;;;;;;5052094;28;20098;-79
2024/03/04 05:02:41;;;;;;;25.73;21.58;;;5.40;96.30;;;;;;5058115;28;20040;-79
2024/03/04 05:05:07;;;;;;;26.92;21.50;;;5.40;96.30;;;;;;5055088;28;20078;-78
2024/03/04 05:07:33;;;;;;;24.60;20.73;;;5.40;96.30;;;;;;5054878;28;20017;-79
2024/03/04 05:09:59;;;;;;;24.42;20.75;;;5.40;96.20;;;;;;5053073;28;20036;-79
2024/03/04 05:12:24;;;;;;;24.10;20.23;;;5.40;96.30;;;;;;5056133;28;20070;-79
2024/03/04 05:14:50;;;;;;;22.92;20.42;;;5.40;96.30;;;;;;5053302;28;20064;-80
2024/03/04 05:17:16;;;;;;;24.65;20.52;;;5.30;96.20;;;;;;5056476;28;20507;-79
2024/03/04 05:19:41;;;;;;;24.15;19.67;;;5.30;96.20;;;;;;5049870;28;20048;-79
2024/03/04 05:22:09;;;;;;;26.10;21.75;;;5.30;96.20;;;;;;5052630;28;20488;-79
2024/03/04 05:24:35;;;;;;;24.20;20.70;;;5.30;96.30;;;;;;5048071;28;20108;-80
2024/03/04 05:27:01;;;;;;;25.52;21.20;;;5.30;96.20;;;;;;5049950;28;20056;-80
2024/03/04 05:29:26;;;;;;;24.10;19.42;;;5.30;96.20;;;;;;5048393;28;20369;-79
2024/03/04 05:31:58;;;;;;;24.30;19.85;;;5.20;96.20;;;;;;5059040;28;20716;-80
2024/03/04 05:34:24;;;;;;;25.60;20.95;;;5.20;96.20;;;;;;5052812;28;20079;-80
2024/03/04 05:36:50;;;;;;;24.15;19.50;;;5.10;96.20;;;;;;5056504;28;20108;-80
2024/03/04 05:39:21;;;;;;;25.27;20.73;;;5.10;96.20;;;;;;5055332;28;20313;-80
2024/03/04 05:41:48;;;;;;;24.23;20.80;;;5.10;96.20;;;;;;5066297;28;20237;-79
2024/03/04 05:44:15;;;;;;;25.80;21.65;;;5.10;96.20;;;;;;5052137;28;20102;-79
2024/03/04 05:46:40;;;;;;;23.52;19.38;;;5.00;96.20;;;;;;5054284;28;20036;-79
2024/03/04 05:49:08;;;;;;;26.08;22.20;;;5.00;96.30;;;;;;5055644;28;20465;-79
2024/03/04 05:51:38;;;;;;;24.20;20.50;;;5.00;96.30;;;;;;5049177;28;20029;-79
2024/03/04 05:54:03;;;;;;;22.73;19.80;;;5.00;96.30;;;;;;5070024;28;20029;-79
2024/03/04 05:56:29;;;;;;;25.08;19.77;;;5.00;96.30;;;;;;5053371;28;20020;-79
2024/03/04 05:58:54;;;;;;;25.17;20.15;;;5.00;96.30;;;;;;5048595;28;21655;-79
2024/03/04 06:01:20;;;;;;;27.38;21.88;;;5.00;96.30;;;;;;5048586;28;20146;-79
2024/03/04 06:03:46;;;;;;;26.70;20.90;;;4.90;96.30;;;;;;5049172;28;20182;-79
2024/03/04 06:06:12;;;;;;;24.23;20.27;;;4.90;96.30;;;;;;5047895;28;20072;-79
2024/03/04 06:08:37;;;;;;;23.98;20.08;;;4.90;96.30;;;;;;5051839;28;20051;-79
2024/03/04 06:11:03;;;;;;;24.88;21.13;;;4.90;96.30;;;;;;5050264;28;20097;-79
2024/03/04 06:13:29;;;;;;;24.38;19.70;;;4.80;96.30;;;;;;5055938;28;20531;-80
2024/03/04 06:15:54;;;;;;;24.70;21.67;;;4.80;96.40;;;;;;5049998;28;20388;-79
2024/03/04 06:18:20;;;;;;;26.58;21.50;;;4.80;96.40;;;;;;5052790;28;20316;-80
2024/03/04 06:20:46;;;;;;;27.23;21.52;;;4.80;96.40;;;;;;5049210;28;20103;-79
2024/03/04 06:23:11;;;;;;;25.75;20.92;;;4.70;96.40;;;;;;5053759;28;20097;-79
2024/03/04 06:25:37;;;;;;;23.95;21.13;;;4.70;96.40;;;;;;5051012;28;20040;-79
2024/03/04 06:28:03;;;;;;;25.58;21.10;;;4.70;96.40;;;;;;5051653;28;20021;-80
2024/03/04 06:30:29;;;;;;;24.25;20.95;;;4.60;96.40;;;;;;5054580;28;20027;-79
2024/03/04 06:32:54;;;;;;;26.38;21.25;;;4.60;96.40;;;;;;5054258;28;20056;-79
2024/03/04 06:35:20;;;;;;;28.73;22.63;;;4.60;96.50;;;;;;5052341;28;20047;-79
2024/03/04 06:37:45;;;;;;;25.52;21.17;;;4.60;96.50;;;;;;5056114;28;20470;-79
2024/03/04 06:40:11;;;;;;;25.10;19.63;;;4.60;96.60;;;;;;5048459;28;20116;-80
2024/03/04 06:42:37;;;;;;;25.48;19.48;;;4.50;96.60;;;;;;5048081;28;20071;-79
2024/03/04 06:45:04;;;;;;;24.35;19.77;;;4.60;96.60;;;;;;5051011;28;20056;-79
2024/03/04 06:47:30;;;;;;;24.67;19.13;;;4.60;96.60;;;;;;5049948;28;20622;-79
2024/03/04 06:49:55;;;;;;;22.70;19.13;;;4.60;96.60;;;;;;5052397;28;20033;-79
2024/03/04 06:52:21;;;;;;;21.80;18.80;;;4.60;96.50;;;;;;5055100;28;20032;-79
2024/03/04 06:54:50;;;;;;;24.70;18.67;;;4.60;96.50;;;;;;5044851;28;20192;-74
2024/03/04 06:57:17;;;;;;;23.50;18.75;;;4.50;96.50;;;;;;5052370;28;20381;-74
2024/03/04 06:59:43;;;;;;;26.55;19.55;;;4.50;96.60;;;;;;5050187;28;20032;-73
2024/03/04 07:02:09;;;;;;;25.00;20.77;;;4.60;96.60;;;;;;5052269;28;20124;-74
2024/03/04 07:04:34;;;;;;;23.85;19.10;;;4.60;96.60;;;;;;5054793;28;20031;-74
2024/03/04 07:07:00;;;;;;;23.52;18.88;;;4.60;96.60;;;;;;5054324;28;20047;-74
2024/03/04 07:09:25;;;;;;;22.40;19.40;;;4.60;96.50;;;;;;5050309;28;20481;-75
2024/03/04 07:11:51;;;;;;;26.83;20.52;;;4.70;96.50;;;;;;5052308;28;20024;-75
2024/03/04 07:14:17;;;;;;;26.00;19.55;;;4.60;96.50;;;;;;5049838;28;20755;-75
2024/03/04 07:16:42;;;;;;;25.42;19.50;;;4.60;96.40;;;;;;5050531;28;20054;-75
2024/03/04 07:19:09;;;;;;;25.20;21.13;;;4.60;96.30;;;;;;5049769;28;20025;-75
2024/03/04 07:21:34;;;;;;;26.08;20.33;;;4.60;96.30;;;;;;5048441;28;20036;-73
2024/03/04 07:24:00;;;;;;;23.52;19.98;;;4.60;96.40;;;;;;5047628;28;20028;-75
2024/03/04 07:26:26;;;;;;;27.58;21.30;;;4.60;96.30;;;;;;5048682;28;20036;-76
2024/03/04 07:28:51;;;;;;;23.67;19.70;;;4.60;96.30;;;;;;5052032;28;20035;-75
2024/03/04 07:31:17;;;;;;;22.40;19.50;;;4.60;96.40;;;;;;5050883;28;20677;-75
2024/03/04 07:33:42;;;;;;;26.25;20.05;;;4.60;96.40;;;;;;5052657;28;20170;-76
2024/03/04 07:36:13;;;;;;;28.88;22.73;;;4.70;96.40;;;;;;5053823;28;20020;-75
2024/03/04 07:38:39;;;;;;;24.40;19.17;;;4.80;96.30;;;;;;5051838;28;20035;-74
2024/03/04 07:41:05;;;;;;;29.65;20.77;;;4.90;96.30;;;;;;5049057;28;20714;-75
2024/03/04 07:43:30;;;;;;;27.45;20.63;;;4.90;96.30;;;;;;5049758;28;20099;-75
2024/03/04 07:45:56;;;;;;;27.90;21.95;;;4.90;96.30;;;;;;5048754;28;20049;-75
2024/03/04 07:48:22;;;;;;;27.98;21.45;;;5.00;96.30;;;;;;5052469;28;20017;-75
2024/03/04 07:50:47;;;;;;;31.80;21.17;;;5.00;96.30;;;;;;5054095;28;20124;-75
2024/03/04 07:53:13;;;;;;;24.45;21.25;;;5.00;96.30;;;;;;5058591;28;20034;-75
2024/03/04 07:55:38;;;;;;;29.40;22.55;;;5.10;96.40;;;;;;5052080;28;20484;-75
2024/03/04 07:58:04;;;;;;;25.67;21.15;;;5.10;96.40;;;;;;5050271;28;20497;-75
2024/03/04 08:00:30;;;;;;;26.05;21.75;;;5.20;96.40;;;;;;5053749;28;20067;-75
2024/03/04 08:02:55;;;;;;;26.67;20.50;;;5.20;96.50;;;;;;5053593;28;20036;-75
2024/03/04 08:05:21;;;;;;;27.58;20.80;;;5.30;96.50;;;;;;5051973;28;20032;-75
2024/03/04 08:07:47;;;;;;;26.73;21.73;;;5.40;96.60;;;;;;5058053;28;20144;-74
2024/03/04 08:10:13;;;;;;;28.92;22.55;;;5.60;96.60;;;;;;5054303;28;20103;-74
2024/03/04 08:12:39;;;;;;;26.73;21.83;;;5.70;96.60;;;;;;5057216;28;20044;-74
2024/03/04 08:15:05;;;;;;;26.15;19.77;;;5.80;96.70;;;;;;5052440;28;20491;-74
2024/03/04 08:17:32;;;;;;;26.15;21.20;;;6.00;96.70;;;;;;5058121;28;20539;-74
2024/03/04 08:20:01;;;;;;;28.40;21.48;;;6.10;96.70;;;;;;5053434;28;20070;-74
2024/03/04 08:22:27;;;;;;;26.42;21.65;;;6.30;96.60;;;;;;5057043;28;20031;-74
2024/03/04 08:24:53;;;;;;;27.05;21.67;;;6.40;96.50;;;;;;5051944;28;20037;-73
2024/03/04 08:27:19;;;;;;;25.08;21.50;;;6.60;96.40;;;;;;5051862;28;20473;-74
2024/03/04 08:29:45;;;;;;;28.42;21.70;;;6.80;96.30;;;;;;5055634;28;20035;-74
2024/03/04 08:32:11;;;;;;;27.77;20.35;;;7.00;96.00;;;;;;5059659;28;20139;-74
2024/03/04 08:34:37;;;;;;;27.08;20.65;;;7.10;95.70;;;;;;5051197;28;20033;-73
2024/03/04 08:37:03;;;;;;;30.38;21.73;;;7.30;95.50;;;;;;5054964;28;20131;-75
2024/03/04 08:39:29;;;;;;;23.95;19.55;;;7.50;95.20;;;;;;5052237;28;20513;-73
2024/03/04 08:41:55;;;;;;;24.15;18.55;;;7.70;94.70;;;;;;5055002;28;20056;-74
2024/03/04 08:44:20;;;;;;;25.65;18.77;;;7.90;94.20;;;;;;5050500;28;20963;-74
2024/03/04 08:46:46;;;;;;;24.48;18.10;;;8.10;93.50;;;;;;5056981;28;20415;-73
2024/03/04 08:49:15;;;;;;;23.38;18.80;;;8.20;92.60;;;;;;5050550;28;20036;-73
2024/03/04 08:51:41;;;;;;;22.38;16.92;;;8.50;92.30;;;;;;5054218;28;20036;-74
2024/03/04 08:54:08;;;;;;;24.02;16.65;;;8.70;91.80;;;;;;5052863;28;20055;-74
2024/03/04 08:56:34;;;;;;;20.38;15.45;;;8.80;90.90;;;;;;5049996;28;20128;-74
2024/03/04 08:59:00;;;;;;;21.52;16.25;;;9.10;90.70;;;;;;5053455;28;20107;-74
2024/03/04 09:01:26;;;;;;;21.58;15.82;;;9.20;89.80;;;;;;5053974;28;20043;-74
2024/03/04 09:03:52;;;;;;;19.05;14.40;;;9.40;89.00;;;;;;5048750;28;20033;-75
2024/03/04 09:06:20;;;;;;;22.23;15.85;;;9.60;88.50;;;;;;5051155;28;20727;-73
2024/03/04 09:08:47;;;;;;;18.25;13.70;;;9.70;88.30;;;;;;5055232;28;20032;-74
2024/03/04 09:11:13;;;;;;;20.10;12.77;;;9.80;87.50;;;;;;5052320;28;20028;-74
2024/03/04 09:13:42;;;;;;;17.27;13.10;;;9.80;87.00;;;;;;5057746;28;20020;-73
2024/03/04 09:16:08;;;;;;;18.33;13.95;;;9.90;86.70;;;;;;5053657;28;20056;-74
2024/03/04 09:18:35;;;;;;;17.08;13.80;;;10.00;86.10;;;;;;5056715;28;20087;-74
2024/03/04 09:21:01;;;;;;;20.80;14.00;;;10.10;86.70;;;;;;5050067;28;20643;-75
2024/03/04 09:23:27;;;;;;;20.33;12.43;;;10.20;86.30;;;;;;5053357;28;20356;-75
2024/03/04 09:25:54;;;;;;;14.68;12.15;;;10.40;86.40;;;;;;5051025;28;20033;-75
2024/03/04 09:28:20;;;;;;;26.75;12.90;;;10.50;85.90;;;;;;5045185;28;20032;-75
2024/03/04 09:30:46;;;;;;;16.02;11.93;;;10.60;85.20;;;;;;5048572;28;20465;-74
2024/03/04 09:33:11;;;;;;;16.40;11.50;;;10.70;84.50;;;;;;5049544;28;20657;-74
2024/03/04 09:35:37;;;;;;;19.55;11.60;;;10.80;83.60;;;;;;5046538;28;20198;-75
2024/03/04 09:38:04;;;;;;;16.40;11.80;;;10.90;83.80;;;;;;5034309;28;20123;-76
2024/03/04 09:40:30;;;;;;;15.65;10.63;;;11.00;83.00;;;;;;5064319;28;20045;-74
2024/03/04 09:42:57;;;;;;;18.55;11.93;;;11.10;83.50;;;;;;5054130;28;20056;-74
2024/03/04 09:45:24;;;;;;;15.45;10.30;;;11.30;83.10;;;;;;5054521;28;20051;-75
2024/03/04 09:47:57;;;;;;;15.68;9.98;;;11.40;82.00;;;;;;5053381;28;20021;-75
2024/03/04 09:50:23;;;;;;;15.48;9.60;;;11.30;81.10;;;;;;5048266;28;20032;-74
2024/03/04 09:52:50;;;;;;;15.25;10.18;;;11.50;81.40;;;;;;5052654;28;20032;-74
2024/03/04 09:55:16;;;;;;;14.35;9.70;;;11.40;81.40;;;;;;5052228;28;20114;-74
2024/03/04 09:57:43;;;;;;;13.43;9.13;;;11.40;80.80;;;;;;5054290;28;20028;-75
2024/03/04 10:00:13;;;;;;;15.88;9.77;;;11.40;80.40;;;;;;5052539;28;20041;-74
2024/03/04 10:02:41;;;;;;;12.27;9.00;;;11.60;80.70;;;;;;5044937;28;20125;-75
2024/03/04 10:05:11;;;;;;;11.32;7.93;;;11.70;79.50;;;;;;5049225;28;20063;-74
2024/03/04 10:07:37;;;;;;;13.88;8.40;;;11.60;78.70;;;;;;5048402;28;20013;-73
2024/03/04 10:10:04;;;;;;;12.57;8.10;;;11.60;78.90;;;;;;5045759;28;20455;-74
2024/03/04 10:12:31;;;;;;;12.43;8.27;;;11.60;78.40;;;;;;5033866;28;20012;-73
2024/03/04 10:15:10;;;;;;;12.60;8.07;;;11.70;77.80;;;;;;5049151;28;20127;-74
2024/03/04 10:17:39;;;;;;;12.15;8.73;;;11.70;77.40;;;;;;5048146;28;20031;-73
2024/03/04 10:20:13;;;;;;;12.23;7.97;;;11.80;77.00;;;;;;5047800;28;20040;-73
2024/03/04 10:22:40;;;;;;;9.35;6.32;;;11.80;78.00;;;;;;5053104;28;20032;-72
2024/03/04 10:25:07;;;;;;;9.75;5.05;;;11.80;75.90;;;;;;5050366;28;20053;-73
2024/03/04 10:27:38;;;;;;;12.00;6.63;;;11.80;74.40;;;;;;5054831;28;20021;-73
2024/03/04 10:30:19;;;;;;;10.57;6.22;;;11.90;74.70;;;;;;5046454;28;20047;-74
2024/03/04 10:32:47;;;;;;;9.95;6.53;;;12.10;74.20;;;;;;5054302;28;20040;-75
2024/03/04 10:35:14;;;;;;;13.40;6.93;;;12.10;74.50;;;;;;5053759;28;20017;-76
2024/03/04 10:37:40;;;;;;;10.25;6.68;;;12.10;74.30;;;;;;5053815;28;20127;-75
2024/03/04 10:40:10;;;;;;;11.25;5.90;;;12.30;75.30;;;;;;5048874;28;20049;-75
2024/03/04 10:42:40;;;;;;;11.05;6.22;;;12.30;74.20;;;;;;5055171;28;20032;-73
2024/03/04 10:45:08;;;;;;;10.32;7.00;;;12.40;74.90;;;;;;5049276;28;20048;-73
2024/03/04 10:47:35;;;;;;;9.90;4.07;;;12.40;75.10;;;;;;5052955;28;20426;-76
2024/03/04 10:50:02;;;;;;;8.32;4.43;;;12.20;69.70;;;;;;5048150;28;20040;-74
2024/03/04 10:52:27;;;;;;;7.90;4.82;;;12.10;69.50;;;;;;5046323;28;20066;-74
2024/03/04 10:54:54;;;;;;;6.57;3.83;;;12.20;71.90;;;;;;5048769;28;20036;-74
2024/03/04 10:57:27;;;;;;;8.75;5.00;;;12.10;71.20;;;;;;5052895;28;20131;-74
2024/03/04 10:59:58;;;;;;;9.32;5.15;;;12.40;70.40;;;;;;5042461;28;20092;-75
2024/03/04 11:02:32;;;;;;;8.20;4.95;;;12.50;71.30;;;;;;5047473;28;20049;-75
2024/03/04 11:05:01;;;;;;;9.80;4.93;;;12.60;70.80;;;;;;5051743;28;20050;-74
2024/03/04 11:07:30;;;;;;;10.55;5.78;;;12.60;70.20;;;;;;5045298;28;20633;-75
2024/03/04 11:10:00;;;;;;;9.95;5.30;;;12.60;71.30;;;;;;5050002;28;20028;-74
2024/03/04 11:12:30;;;;;;;10.05;6.28;;;12.60;71.70;;;;;;5049462;28;20375;-74
2024/03/04 11:15:03;;;;;;;9.77;5.15;;;12.70;72.70;;;;;;5049833;28;20024;-76
2024/03/04 11:17:57;;;;;;;11.00;5.90;;;12.70;70.40;;;;;;5052831;28;20393;-75
2024/03/04 11:20:26;;;;;;;8.00;3.90;;;12.80;70.50;;;;;;5049505;28;20020;-75
2024/03/04 11:22:53;;;;;;;8.02;4.55;;;12.80;68.30;;;;;;5056353;28;20032;-74
2024/03/04 11:25:18;;;;;;;7.25;3.47;;;12.90;68.50;;;;;;5050762;28;20496;-75
2024/03/04 11:27:45;;;;;;;6.72;3.13;;;13.00;69.10;;;;;;5051835;28;20555;-74
2024/03/04 11:30:12;;;;;;;6.70;3.40;;;13.10;67.80;;;;;;5052358;28;20420;-74
2024/03/04 11:32:37;;;;;;;6.13;3.63;;;13.30;67.60;;;;;;5058828;28;20017;-74
2024/03/04 11:35:09;;;;;;;7.53;3.83;;;13.30;66.30;;;;;;5050961;28;20047;-75
2024/03/04 11:37:52;;;;;;;6.80;3.38;;;13.00;65.10;;;;;;5057983;28;20615;-75
2024/03/04 11:40:24;;;;;;;8.82;3.92;;;12.80;67.10;;;;;;5046870;28;20400;-75
2024/03/04 11:42:50;;;;;;;8.38;3.42;;;12.90;68.20;;;;;;5050797;28;20052;-74
2024/03/04 11:45:31;;;;;;;6.75;3.60;;;12.80;68.00;;;;;;5057779;28;20036;-74
2024/03/04 11:47:57;;;;;;;9.95;4.53;;;13.00;67.70;;;;;;5053812;28;20028;-73
2024/03/04 11:50:37;;;;;;;8.43;4.50;;;13.10;67.30;;;;;;5060088;28;20342;-74
2024/03/04 11:53:04;;;;;;;11.68;4.72;;;13.10;67.50;;;;;;5056722;28;20056;-74
2024/03/04 11:55:31;;;;;;;9.82;4.63;;;13.10;68.00;;;;;;5049351;28;20087;-74
2024/03/04 11:57:58;;;;;;;9.82;4.15;;;13.10;69.10;;;;;;5051625;28;20629;-74
2024/03/04 12:00:25;;;;;;;8.45;4.47;;;13.30;67.80;;;;;;5048631;28;20036;-74
2024/03/04 12:03:03;;;;;;;7.68;4.20;;;13.30;68.10;;;;;;5055712;28;20032;-74
2024/03/04 12:05:29;;;;;;;8.13;3.85;;;13.20;69.00;;;;;;5059145;28;20097;-73
2024/03/04 12:07:54;;;;;;;7.15;3.83;;;13.30;67.10;;;;;;5058177;28;20394;-74
2024/03/04 12:10:22;;;;;;;7.07;3.95;;;13.40;66.80;;;;;;5053608;28;20707;-73
2024/03/04 12:12:48;;;;;;;7.43;4.45;;;13.40;67.10;;;;;;5060769;28;20024;-74
2024/03/04 12:15:13;;;;;;;6.60;3.30;;;13.40;66.90;;;;;;5056127;28;20285;-74
2024/03/04 12:17:39;;;;;;;6.90;3.60;;;13.30;66.00;;;;;;5057086;28;20785;-73
2024/03/04 12:20:07;;;;;;;8.73;3.42;;;13.40;65.30;;;;;;5058017;28;21269;-74
2024/03/04 12:22:33;;;;;;;6.93;3.53;;;13.40;66.00;;;;;;5056477;28;20020;-73
2024/03/04 12:25:00;;;;;;;8.18;3.50;;;13.50;65.20;;;;;;5053443;28;20040;-73
2024/03/04 12:27:26;;;;;;;5.93;3.22;;;13.30;64.30;;;;;;5054651;28;20025;-73
2024/03/04 12:29:55;;;;;;;6.93;3.13;;;13.40;65.50;;;;;;5052711;28;20710;-74
2024/03/04 12:32:21;;;;;;;8.43;3.53;;;13.50;63.90;;;;;;5056453;28;20089;-74
2024/03/04 12:34:46;;;;;;;9.10;3.97;;;13.60;64.70;;;;;;5055040;28;20032;-74